Strona główna
METAR-TAF:

METAR-TAF

Lotnisko :

Büchel, Niemcy

Szerokość geograficzna: 50-10N, Długość geograficzna: 007-04E, wysokość: 478 m

Aktualna obserwacja pogody

Raport powstał 33 minut temu, godzina 03:59 UTC
Wiatr 10 kt od północ
Temperatura 11°C
Wilgotność 71%
Ciśnienie 1031 hPa
Widzialność 10 km lub więcej
Mało chmury na wysokości 4000 ft

METAR: ETSB 280359Z 36010KT 9999 FEW040 11/06 Q1031 BLU+

czas: 06:32 (04:32 UTC)

Prognoza

Raport powstał 18 godziny i 12 minut temu, godzina 10:20 UTC
Prognoza ważna od 27 godzina 11 UTC do 27 godzina 20 UTC
Wiatr 5 kt od wschodnio-północny wschód
Widzialność 10 km lub więcej
Rozproszone chmury na wysokości 5000 ft

TAF: ETSB 271020Z 2711/2720 06005KT 9999 NSW SCT050 BY ETGL

Obserwacja i prognoza pogody dla ponad 4000 lotnisk (raport METAR i TAF).

Dostępne stacje oznaczono żółtymi i czerwonymi punktami na mapie.

Najedź kursorem aby zobaczyć nazwę stacji.

Kliknij aby zobaczyć obserwacje i prognozy pogody.

Aby zmienić mapę: kliknij na zielony przycisk z czarnym krzyżykiem, aby powiększyć; na zielony przycisk z myślnikiem, aby pomniejszyć; na zielone strzałki, aby przejść do map sąsiednich.


METAR-TAF: